Bentley Heath, United Kingdom
Current Conditions -  °F | °C
As of 9:20 AM on Thursday 18 Dec 2014 (Local Time) from EGBB Reporting Station
Broken Clouds Broken Clouds  
Wind Chill: 55°   Ceiling: 1900
Heat Index: 55°   Visibility: 6mi
Dew Point: 50°   Wind: 13mph
Humidity: 82%   Direction: 230°SW
Pressure: 29.71"   Gusts: NA
Location:  52.42°N, 1.78°W
Report Text: EGBB 180920Z 23011KT 210V270 9999 BKN019 13/10 Q1006
Loading
Personal Weather Stations






























Interactive Weather Map New forecast layout! Learn more

10-Day Weather Forecast

Advertisements
Track Severe Weather on mobile